GMTT

Ibn Batouta Airport

Tangier, Morocco
METAR GMTT 101500Z 28003KT 250V320 9999 FEW016 21/12 Q1023 NOSIG
Observed Flight Rules
Dec-10 @ 15:00 UTC (26 minutes ago) Visual Flight Rules
Wind Visibility Clouds
280° at 3 knots 10,000+ meters
  • Few at 1,600' AGL
Temperatures Readings
Current 21°C / 70°F
Dewpoint 12°C / 54°F
Humidity 57%
Altimeter 30.21" Hg
Pressure 1023 hPa
Elevation 21
METAR GMTT 101500Z 28003KT 250V320 9999 FEW016 21/12 Q1023 NOSIG
Observed Flight Rules
Dec-10 @ 15:00 UTC
(26 minutes ago)
VFR
Wind Visibility
280° at 3 knots 10,000+ meters
Clouds
  • Few at 1,600' AGL
Temperature Dewpoint
21°C / 70°F 12°C / 54°F
Humidity Altimeter Pressure
57% 30.21" Hg 1023 hPa